sensor_id;sensor_type;location;lat;lon;timestamp;pressure;altitude;pressure_sealevel;temperature;humidity
34065;BME280;20339;49.754;20.158;2024-02-15T00:00:59;97159.55;;;5.16;69.34
34065;BME280;20339;49.754;20.158;2024-02-15T00:03:45;97158.19;;;5.14;69.66
34065;BME280;20339;49.754;20.158;2024-02-15T00:06:22;97154.27;;;5.12;69.69
34065;BME280;20339;49.754;20.158;2024-02-15T00:08:54;97155.02;;;5.10;69.72
34065;BME280;20339;49.754;20.158;2024-02-15T00:11:25;97155.75;;;5.07;69.88
34065;BME280;20339;49.754;20.158;2024-02-15T00:13:56;97151.75;;;5.07;69.96
34065;BME280;20339;49.754;20.158;2024-02-15T00:16:27;97151.84;;;5.09;69.90
34065;BME280;20339;49.754;20.158;2024-02-15T00:18:58;97152.41;;;5.11;70.17
34065;BME280;20339;49.754;20.158;2024-02-15T00:21:34;97151.29;;;5.13;70.07
34065;BME280;20339;49.754;20.158;2024-02-15T00:24:06;97150.67;;;5.14;70.21
34065;BME280;20339;49.754;20.158;2024-02-15T00:26:37;97145.73;;;5.16;70.31
34065;BME280;20339;49.754;20.158;2024-02-15T00:29:11;97148.80;;;5.20;70.21
34065;BME280;20339;49.754;20.158;2024-02-15T00:31:44;97147.27;;;5.23;70.09
34065;BME280;20339;49.754;20.158;2024-02-15T00:34:15;97150.12;;;5.24;70.03
34065;BME280;20339;49.754;20.158;2024-02-15T00:36:47;97147.79;;;5.23;70.13
34065;BME280;20339;49.754;20.158;2024-02-15T00:39:21;97149.64;;;5.24;70.33
34065;BME280;20339;49.754;20.158;2024-02-15T00:41:52;97144.70;;;5.24;70.27
34065;BME280;20339;49.754;20.158;2024-02-15T00:44:30;97149.75;;;5.24;70.32
34065;BME280;20339;49.754;20.158;2024-02-15T00:47:04;97152.81;;;5.24;70.31
34065;BME280;20339;49.754;20.158;2024-02-15T00:49:35;97144.95;;;5.23;70.43
34065;BME280;20339;49.754;20.158;2024-02-15T00:52:10;97143.05;;;5.23;70.47
34065;BME280;20339;49.754;20.158;2024-02-15T00:54:46;97141.89;;;5.23;70.56
34065;BME280;20339;49.754;20.158;2024-02-15T00:57:17;97138.28;;;5.23;70.75
34065;BME280;20339;49.754;20.158;2024-02-15T00:59:52;97135.16;;;5.25;70.86
34065;BME280;20339;49.754;20.158;2024-02-15T01:02:26;97132.15;;;5.24;70.72
34065;BME280;20339;49.754;20.158;2024-02-15T01:04:58;97132.58;;;5.25;70.86
34065;BME280;20339;49.754;20.158;2024-02-15T01:07:31;97135.05;;;5.25;70.80
34065;BME280;20339;49.754;20.158;2024-02-15T01:10:03;97133.31;;;5.25;70.93
34065;BME280;20339;49.754;20.158;2024-02-15T01:12:40;97131.22;;;5.25;70.89
34065;BME280;20339;49.754;20.158;2024-02-15T01:15:14;97130.81;;;5.23;70.89
34065;BME280;20339;49.754;20.158;2024-02-15T01:17:51;97132.39;;;5.21;71.07
34065;BME280;20339;49.754;20.158;2024-02-15T01:20:22;97137.00;;;5.19;70.89
34065;BME280;20339;49.754;20.158;2024-02-15T01:22:54;97138.95;;;5.17;71.11
34065;BME280;20339;49.754;20.158;2024-02-15T01:25:25;97145.86;;;5.17;71.07
34065;BME280;20339;49.754;20.158;2024-02-15T01:27:57;97146.64;;;5.17;71.14
34065;BME280;20339;49.754;20.158;2024-02-15T01:30:31;97144.44;;;5.18;71.17
34065;BME280;20339;49.754;20.158;2024-02-15T01:33:04;97145.24;;;5.20;71.50
34065;BME280;20339;49.754;20.158;2024-02-15T01:35:38;97148.17;;;5.24;71.50
34065;BME280;20339;49.754;20.158;2024-02-15T01:38:09;97145.34;;;5.24;71.62
34065;BME280;20339;49.754;20.158;2024-02-15T01:40:42;97144.27;;;5.23;71.49
34065;BME280;20339;49.754;20.158;2024-02-15T01:43:16;97149.07;;;5.21;71.74
34065;BME280;20339;49.754;20.158;2024-02-15T01:45:49;97143.93;;;5.22;71.98
34065;BME280;20339;49.754;20.158;2024-02-15T01:48:20;97147.95;;;5.23;72.14
34065;BME280;20339;49.754;20.158;2024-02-15T01:50:52;97152.34;;;5.24;71.93
34065;BME280;20339;49.754;20.158;2024-02-15T01:53:24;97155.98;;;5.23;72.06
34065;BME280;20339;49.754;20.158;2024-02-15T01:55:58;97155.36;;;5.23;72.17
34065;BME280;20339;49.754;20.158;2024-02-15T01:58:30;97153.71;;;5.24;72.20
34065;BME280;20339;49.754;20.158;2024-02-15T02:01:04;97152.87;;;5.28;72.34
34065;BME280;20339;49.754;20.158;2024-02-15T02:03:40;97156.22;;;5.32;72.53
34065;BME280;20339;49.754;20.158;2024-02-15T02:06:12;97156.92;;;5.37;72.52
34065;BME280;20339;49.754;20.158;2024-02-15T02:08:45;97153.73;;;5.39;72.54
34065;BME280;20339;49.754;20.158;2024-02-15T02:11:17;97155.35;;;5.38;72.64
34065;BME280;20339;49.754;20.158;2024-02-15T02:13:49;97154.46;;;5.38;72.53
34065;BME280;20339;49.754;20.158;2024-02-15T02:16:27;97154.68;;;5.39;72.79
34065;BME280;20339;49.754;20.158;2024-02-15T02:19:02;97157.14;;;5.41;72.85
34065;BME280;20339;49.754;20.158;2024-02-15T02:21:38;97155.55;;;5.43;72.70
34065;BME280;20339;49.754;20.158;2024-02-15T02:24:14;97153.70;;;5.46;72.74
34065;BME280;20339;49.754;20.158;2024-02-15T02:26:51;97152.84;;;5.49;72.98
34065;BME280;20339;49.754;20.158;2024-02-15T02:29:25;97155.13;;;5.50;72.58
34065;BME280;20339;49.754;20.158;2024-02-15T02:32:01;97155.64;;;5.48;72.62
34065;BME280;20339;49.754;20.158;2024-02-15T02:34:33;97154.17;;;5.46;72.55
34065;BME280;20339;49.754;20.158;2024-02-15T02:37:05;97156.27;;;5.39;72.55
34065;BME280;20339;49.754;20.158;2024-02-15T02:39:42;97160.95;;;5.30;72.54
34065;BME280;20339;49.754;20.158;2024-02-15T02:42:16;97157.42;;;5.24;72.67
34065;BME280;20339;49.754;20.158;2024-02-15T02:44:52;97161.12;;;5.22;72.79
34065;BME280;20339;49.754;20.158;2024-02-15T02:47:23;97160.15;;;5.21;72.90
34065;BME280;20339;49.754;20.158;2024-02-15T02:49:54;97159.91;;;5.20;73.03
34065;BME280;20339;49.754;20.158;2024-02-15T02:52:28;97161.71;;;5.19;72.86
34065;BME280;20339;49.754;20.158;2024-02-15T02:54:59;97161.94;;;5.20;72.98
34065;BME280;20339;49.754;20.158;2024-02-15T02:57:30;97164.93;;;5.20;73.16
34065;BME280;20339;49.754;20.158;2024-02-15T03:00:03;97163.56;;;5.20;73.35
34065;BME280;20339;49.754;20.158;2024-02-15T03:02:37;97167.44;;;5.21;73.24
34065;BME280;20339;49.754;20.158;2024-02-15T03:05:20;97164.73;;;5.21;73.44
34065;BME280;20339;49.754;20.158;2024-02-15T03:07:54;97164.41;;;5.23;73.44
34065;BME280;20339;49.754;20.158;2024-02-15T03:10:25;97158.63;;;5.23;73.52
34065;BME280;20339;49.754;20.158;2024-02-15T03:12:55;97162.55;;;5.23;73.51
34065;BME280;20339;49.754;20.158;2024-02-15T03:15:27;97160.54;;;5.22;73.52
34065;BME280;20339;49.754;20.158;2024-02-15T03:17:58;97164.10;;;5.22;73.85
34065;BME280;20339;49.754;20.158;2024-02-15T03:20:38;97161.16;;;5.22;73.60
34065;BME280;20339;49.754;20.158;2024-02-15T03:23:09;97160.08;;;5.21;73.79
34065;BME280;20339;49.754;20.158;2024-02-15T03:25:45;97157.05;;;5.17;73.87
34065;BME280;20339;49.754;20.158;2024-02-15T03:28:18;97156.56;;;5.14;74.26
34065;BME280;20339;49.754;20.158;2024-02-15T03:30:53;97158.30;;;5.09;74.51
34065;BME280;20339;49.754;20.158;2024-02-15T03:33:27;97156.31;;;5.07;74.57
34065;BME280;20339;49.754;20.158;2024-02-15T03:36:06;97153.72;;;5.08;74.99
34065;BME280;20339;49.754;20.158;2024-02-15T03:38:40;97155.55;;;5.10;75.34
34065;BME280;20339;49.754;20.158;2024-02-15T03:41:11;97159.80;;;5.13;75.15
34065;BME280;20339;49.754;20.158;2024-02-15T03:43:44;97157.00;;;5.18;75.22
34065;BME280;20339;49.754;20.158;2024-02-15T03:46:18;97156.02;;;5.22;75.39
34065;BME280;20339;49.754;20.158;2024-02-15T03:48:53;97159.02;;;5.24;75.26
34065;BME280;20339;49.754;20.158;2024-02-15T03:51:25;97159.02;;;5.28;75.41
34065;BME280;20339;49.754;20.158;2024-02-15T03:53:56;97154.19;;;5.30;75.51
34065;BME280;20339;49.754;20.158;2024-02-15T03:56:34;97154.89;;;5.32;75.74
34065;BME280;20339;49.754;20.158;2024-02-15T03:59:08;97156.81;;;5.33;75.55
34065;BME280;20339;49.754;20.158;2024-02-15T04:01:42;97154.85;;;5.34;75.68
34065;BME280;20339;49.754;20.158;2024-02-15T04:04:13;97156.36;;;5.36;75.67
34065;BME280;20339;49.754;20.158;2024-02-15T04:06:47;97149.17;;;5.36;75.66
34065;BME280;20339;49.754;20.158;2024-02-15T04:09:23;97151.80;;;5.36;75.59
34065;BME280;20339;49.754;20.158;2024-02-15T04:11:55;97152.65;;;5.36;75.50
34065;BME280;20339;49.754;20.158;2024-02-15T04:14:26;97147.39;;;5.36;75.34
34065;BME280;20339;49.754;20.158;2024-02-15T04:16:57;97144.67;;;5.33;75.45
34065;BME280;20339;49.754;20.158;2024-02-15T04:19:29;97147.06;;;5.32;75.58
34065;BME280;20339;49.754;20.158;2024-02-15T04:22:02;97147.87;;;5.33;75.63
34065;BME280;20339;49.754;20.158;2024-02-15T04:24:37;97149.06;;;5.34;75.64
34065;BME280;20339;49.754;20.158;2024-02-15T04:27:13;97151.36;;;5.35;75.65
34065;BME280;20339;49.754;20.158;2024-02-15T04:29:47;97155.39;;;5.36;75.70
34065;BME280;20339;49.754;20.158;2024-02-15T04:32:22;97153.86;;;5.38;75.55
34065;BME280;20339;49.754;20.158;2024-02-15T04:35:06;97153.05;;;5.39;75.88
34065;BME280;20339;49.754;20.158;2024-02-15T04:37:49;97151.58;;;5.39;75.87
34065;BME280;20339;49.754;20.158;2024-02-15T04:40:25;97149.00;;;5.42;75.86
34065;BME280;20339;49.754;20.158;2024-02-15T04:42:56;97146.42;;;5.44;75.91
34065;BME280;20339;49.754;20.158;2024-02-15T04:45:28;97144.62;;;5.46;76.13
34065;BME280;20339;49.754;20.158;2024-02-15T04:48:00;97150.92;;;5.50;76.04
34065;BME280;20339;49.754;20.158;2024-02-15T04:50:34;97145.09;;;5.53;76.06
34065;BME280;20339;49.754;20.158;2024-02-15T04:53:06;97146.89;;;5.53;76.17
34065;BME280;20339;49.754;20.158;2024-02-15T04:55:37;97141.66;;;5.53;76.12
34065;BME280;20339;49.754;20.158;2024-02-15T04:58:09;97140.16;;;5.54;76.13
34065;BME280;20339;49.754;20.158;2024-02-15T05:00:40;97144.85;;;5.54;76.17
34065;BME280;20339;49.754;20.158;2024-02-15T05:03:13;97142.38;;;5.54;76.29
34065;BME280;20339;49.754;20.158;2024-02-15T05:05:45;97136.91;;;5.57;76.48
34065;BME280;20339;49.754;20.158;2024-02-15T05:08:16;97143.18;;;5.58;76.36
34065;BME280;20339;49.754;20.158;2024-02-15T05:10:49;97142.14;;;5.56;76.29
34065;BME280;20339;49.754;20.158;2024-02-15T05:13:28;97143.27;;;5.54;76.29
34065;BME280;20339;49.754;20.158;2024-02-15T05:15:59;97141.46;;;5.53;76.48
34065;BME280;20339;49.754;20.158;2024-02-15T05:18:30;97144.02;;;5.51;76.59
34065;BME280;20339;49.754;20.158;2024-02-15T05:21:05;97151.65;;;5.50;76.57
34065;BME280;20339;49.754;20.158;2024-02-15T05:23:39;97148.26;;;5.47;76.78
34065;BME280;20339;49.754;20.158;2024-02-15T05:26:16;97149.04;;;5.44;76.98
34065;BME280;20339;49.754;20.158;2024-02-15T05:28:52;97151.39;;;5.43;77.08
34065;BME280;20339;49.754;20.158;2024-02-15T05:31:23;97149.69;;;5.42;77.13
34065;BME280;20339;49.754;20.158;2024-02-15T05:33:55;97154.35;;;5.44;77.33
34065;BME280;20339;49.754;20.158;2024-02-15T05:36:27;97154.73;;;5.47;77.49
34065;BME280;20339;49.754;20.158;2024-02-15T05:38:59;97156.05;;;5.51;77.73
34065;BME280;20339;49.754;20.158;2024-02-15T05:41:32;97154.04;;;5.54;77.67
34065;BME280;20339;49.754;20.158;2024-02-15T05:44:07;97155.80;;;5.55;77.61
34065;BME280;20339;49.754;20.158;2024-02-15T05:46:40;97158.25;;;5.54;77.57
34065;BME280;20339;49.754;20.158;2024-02-15T05:49:16;97153.83;;;5.51;77.70
34065;BME280;20339;49.754;20.158;2024-02-15T05:51:51;97157.98;;;5.48;77.78
34065;BME280;20339;49.754;20.158;2024-02-15T05:54:23;97167.73;;;5.48;77.85
34065;BME280;20339;49.754;20.158;2024-02-15T05:56:54;97169.61;;;5.47;77.77
34065;BME280;20339;49.754;20.158;2024-02-15T05:59:28;97170.05;;;5.45;77.96
34065;BME280;20339;49.754;20.158;2024-02-15T06:01:59;97171.80;;;5.43;77.98
34065;BME280;20339;49.754;20.158;2024-02-15T06:04:33;97176.08;;;5.42;78.14
34065;BME280;20339;49.754;20.158;2024-02-15T06:07:07;97181.23;;;5.41;78.26
34065;BME280;20339;49.754;20.158;2024-02-15T06:09:39;97182.67;;;5.43;78.16
34065;BME280;20339;49.754;20.158;2024-02-15T06:12:13;97179.83;;;5.44;78.26
34065;BME280;20339;49.754;20.158;2024-02-15T06:14:44;97180.61;;;5.45;78.33
34065;BME280;20339;49.754;20.158;2024-02-15T06:17:15;97183.02;;;5.46;78.37
34065;BME280;20339;49.754;20.158;2024-02-15T06:19:50;97185.11;;;5.46;78.47
34065;BME280;20339;49.754;20.158;2024-02-15T06:22:21;97189.14;;;5.48;78.57
34065;BME280;20339;49.754;20.158;2024-02-15T06:24:54;97187.52;;;5.50;79.06
34065;BME280;20339;49.754;20.158;2024-02-15T06:27:26;97195.75;;;5.54;79.00
34065;BME280;20339;49.754;20.158;2024-02-15T06:29:57;97195.84;;;5.56;79.15
34065;BME280;20339;49.754;20.158;2024-02-15T06:32:46;97199.33;;;5.59;79.27
34065;BME280;20339;49.754;20.158;2024-02-15T06:35:37;97203.06;;;5.64;79.42
34065;BME280;20339;49.754;20.158;2024-02-15T06:38:26;97202.21;;;5.71;79.73
34065;BME280;20339;49.754;20.158;2024-02-15T06:41:17;97203.38;;;5.77;79.59
34065;BME280;20339;49.754;20.158;2024-02-15T06:43:51;97203.80;;;5.79;79.62
34065;BME280;20339;49.754;20.158;2024-02-15T06:46:22;97205.46;;;5.81;79.63
34065;BME280;20339;49.754;20.158;2024-02-15T06:48:56;97203.70;;;5.82;79.54
34065;BME280;20339;49.754;20.158;2024-02-15T06:51:28;97205.17;;;5.85;79.33
34065;BME280;20339;49.754;20.158;2024-02-15T06:54:00;97201.61;;;5.86;79.46
34065;BME280;20339;49.754;20.158;2024-02-15T06:56:37;97202.09;;;5.89;79.27
34065;BME280;20339;49.754;20.158;2024-02-15T06:59:12;97204.95;;;5.88;78.97
34065;BME280;20339;49.754;20.158;2024-02-15T07:01:44;97203.79;;;5.87;79.01
34065;BME280;20339;49.754;20.158;2024-02-15T07:04:17;97203.71;;;5.89;78.95
34065;BME280;20339;49.754;20.158;2024-02-15T07:06:52;97206.98;;;5.90;78.89
34065;BME280;20339;49.754;20.158;2024-02-15T07:09:25;97205.17;;;5.91;78.84
34065;BME280;20339;49.754;20.158;2024-02-15T07:12:00;97203.55;;;5.93;78.87
34065;BME280;20339;49.754;20.158;2024-02-15T07:14:34;97198.08;;;5.98;78.95
34065;BME280;20339;49.754;20.158;2024-02-15T07:17:05;97193.45;;;5.98;79.03
34065;BME280;20339;49.754;20.158;2024-02-15T07:19:36;97197.67;;;6.02;79.05
34065;BME280;20339;49.754;20.158;2024-02-15T07:22:08;97198.40;;;6.07;79.00
34065;BME280;20339;49.754;20.158;2024-02-15T07:24:39;97197.12;;;6.11;78.95
34065;BME280;20339;49.754;20.158;2024-02-15T07:27:12;97201.52;;;6.16;78.86
34065;BME280;20339;49.754;20.158;2024-02-15T07:29:43;97201.63;;;6.19;78.87
34065;BME280;20339;49.754;20.158;2024-02-15T07:32:14;97205.46;;;6.20;78.85
34065;BME280;20339;49.754;20.158;2024-02-15T07:34:47;97205.60;;;6.21;78.77
34065;BME280;20339;49.754;20.158;2024-02-15T07:37:21;97207.23;;;6.25;78.82
34065;BME280;20339;49.754;20.158;2024-02-15T07:39:56;97205.92;;;6.30;78.76
34065;BME280;20339;49.754;20.158;2024-02-15T07:42:31;97212.81;;;6.34;78.66
34065;BME280;20339;49.754;20.158;2024-02-15T07:45:06;97210.41;;;6.38;78.72
34065;BME280;20339;49.754;20.158;2024-02-15T07:47:39;97214.39;;;6.43;78.79
34065;BME280;20339;49.754;20.158;2024-02-15T07:50:14;97213.92;;;6.47;78.69
34065;BME280;20339;49.754;20.158;2024-02-15T07:52:52;97217.39;;;6.51;78.67
34065;BME280;20339;49.754;20.158;2024-02-15T07:55:24;97213.65;;;6.58;78.71
34065;BME280;20339;49.754;20.158;2024-02-15T07:57:55;97218.04;;;6.61;78.46
34065;BME280;20339;49.754;20.158;2024-02-15T08:00:28;97214.51;;;6.64;78.31
34065;BME280;20339;49.754;20.158;2024-02-15T08:02:59;97210.49;;;6.67;78.37
34065;BME280;20339;49.754;20.158;2024-02-15T08:05:30;97208.48;;;6.71;78.27
34065;BME280;20339;49.754;20.158;2024-02-15T08:08:01;97209.47;;;6.75;78.25
34065;BME280;20339;49.754;20.158;2024-02-15T08:10:33;97207.23;;;6.84;78.15
34065;BME280;20339;49.754;20.158;2024-02-15T08:13:05;97207.61;;;6.91;78.11
34065;BME280;20339;49.754;20.158;2024-02-15T08:15:39;97210.77;;;6.94;78.03
34065;BME280;20339;49.754;20.158;2024-02-15T08:18:10;97214.40;;;6.97;77.99
34065;BME280;20339;49.754;20.158;2024-02-15T08:20:44;97217.67;;;6.97;77.86
34065;BME280;20339;49.754;20.158;2024-02-15T08:23:15;97214.36;;;7.02;77.76
34065;BME280;20339;49.754;20.158;2024-02-15T08:25:50;97215.68;;;7.02;77.61
34065;BME280;20339;49.754;20.158;2024-02-15T08:28:22;97218.42;;;7.02;77.63
34065;BME280;20339;49.754;20.158;2024-02-15T08:30:55;97220.38;;;7.02;77.63
34065;BME280;20339;49.754;20.158;2024-02-15T08:33:26;97220.17;;;7.02;77.55
34065;BME280;20339;49.754;20.158;2024-02-15T08:36:00;97222.70;;;7.02;77.56
34065;BME280;20339;49.754;20.158;2024-02-15T08:38:31;97224.59;;;7.02;77.68
34065;BME280;20339;49.754;20.158;2024-02-15T08:41:04;97224.34;;;7.03;77.76
34065;BME280;20339;49.754;20.158;2024-02-15T08:43:37;97223.34;;;7.02;77.59
34065;BME280;20339;49.754;20.158;2024-02-15T08:46:11;97221.06;;;7.02;77.61
34065;BME280;20339;49.754;20.158;2024-02-15T08:48:47;97218.64;;;7.05;77.67
34065;BME280;20339;49.754;20.158;2024-02-15T08:51:21;97224.67;;;7.05;77.96
34065;BME280;20339;49.754;20.158;2024-02-15T08:53:55;97226.27;;;7.06;77.74
34065;BME280;20339;49.754;20.158;2024-02-15T08:56:29;97226.94;;;7.05;77.58
34065;BME280;20339;49.754;20.158;2024-02-15T08:59:03;97228.20;;;7.05;77.56
34065;BME280;20339;49.754;20.158;2024-02-15T09:01:34;97229.27;;;7.05;77.59
34065;BME280;20339;49.754;20.158;2024-02-15T09:04:05;97226.77;;;7.09;77.55
34065;BME280;20339;49.754;20.158;2024-02-15T09:06:51;97228.73;;;7.14;77.56
34065;BME280;20339;49.754;20.158;2024-02-15T09:09:24;97224.18;;;7.16;77.40
34065;BME280;20339;49.754;20.158;2024-02-15T09:11:57;97227.33;;;7.21;77.42
34065;BME280;20339;49.754;20.158;2024-02-15T09:14:38;97228.86;;;7.26;77.44
34065;BME280;20339;49.754;20.158;2024-02-15T09:17:12;97230.48;;;7.29;77.38
34065;BME280;20339;49.754;20.158;2024-02-15T09:19:43;97230.55;;;7.36;77.37
34065;BME280;20339;49.754;20.158;2024-02-15T09:22:16;97230.69;;;7.46;77.41
34065;BME280;20339;49.754;20.158;2024-02-15T09:24:55;97228.91;;;7.51;77.11
34065;BME280;20339;49.754;20.158;2024-02-15T09:27:28;97229.18;;;7.56;77.18
34065;BME280;20339;49.754;20.158;2024-02-15T09:30:02;97225.03;;;7.68;77.33
34065;BME280;20339;49.754;20.158;2024-02-15T09:32:37;97226.46;;;7.82;77.12
34065;BME280;20339;49.754;20.158;2024-02-15T09:35:15;97222.50;;;7.89;76.93
34065;BME280;20339;49.754;20.158;2024-02-15T09:37:53;97220.63;;;7.87;76.40
34065;BME280;20339;49.754;20.158;2024-02-15T09:40:27;97224.27;;;7.89;76.36
34065;BME280;20339;49.754;20.158;2024-02-15T09:42:59;97221.95;;;7.96;76.51
34065;BME280;20339;49.754;20.158;2024-02-15T09:45:31;97222.01;;;8.06;76.43
34065;BME280;20339;49.754;20.158;2024-02-15T09:48:07;97224.93;;;8.17;76.54
34065;BME280;20339;49.754;20.158;2024-02-15T09:50:46;97222.94;;;8.23;76.23
34065;BME280;20339;49.754;20.158;2024-02-15T09:53:20;97223.77;;;8.35;76.23
34065;BME280;20339;49.754;20.158;2024-02-15T09:55:58;97219.84;;;8.47;76.14
34065;BME280;20339;49.754;20.158;2024-02-15T09:58:42;97217.08;;;8.58;75.89
34065;BME280;20339;49.754;20.158;2024-02-15T10:01:14;97216.25;;;8.71;75.67
34065;BME280;20339;49.754;20.158;2024-02-15T10:03:53;97217.27;;;8.92;75.65
34065;BME280;20339;49.754;20.158;2024-02-15T10:06:23;97215.75;;;9.12;75.37
34065;BME280;20339;49.754;20.158;2024-02-15T10:08:56;97210.46;;;9.29;75.10
34065;BME280;20339;49.754;20.158;2024-02-15T10:11:55;97210.46;;;9.46;74.80
34065;BME280;20339;49.754;20.158;2024-02-15T10:14:30;97208.70;;;9.52;74.45
34065;BME280;20339;49.754;20.158;2024-02-15T10:17:10;97202.46;;;9.64;74.43
34065;BME280;20339;49.754;20.158;2024-02-15T10:20:04;97199.29;;;9.76;74.17
34065;BME280;20339;49.754;20.158;2024-02-15T10:22:37;97198.54;;;9.73;73.72
34065;BME280;20339;49.754;20.158;2024-02-15T10:25:16;97197.21;;;9.73;73.64
34065;BME280;20339;49.754;20.158;2024-02-15T10:28:03;97201.32;;;9.80;73.38
34065;BME280;20339;49.754;20.158;2024-02-15T10:30:43;97196.16;;;9.86;73.31
34065;BME280;20339;49.754;20.158;2024-02-15T10:33:19;97197.92;;;9.91;73.28
34065;BME280;20339;49.754;20.158;2024-02-15T10:36:06;97191.58;;;9.93;73.05
34065;BME280;20339;49.754;20.158;2024-02-15T10:38:41;97189.67;;;9.94;72.56
34065;BME280;20339;49.754;20.158;2024-02-15T10:41:13;97187.73;;;10.02;72.66
34065;BME280;20339;49.754;20.158;2024-02-15T10:43:46;97185.04;;;10.16;72.34
34065;BME280;20339;49.754;20.158;2024-02-15T10:46:20;97183.84;;;10.19;72.15
34065;BME280;20339;49.754;20.158;2024-02-15T10:48:54;97182.14;;;10.37;72.05
34065;BME280;20339;49.754;20.158;2024-02-15T10:51:27;97182.65;;;10.54;72.05
34065;BME280;20339;49.754;20.158;2024-02-15T10:54:05;97183.08;;;10.56;71.29
34065;BME280;20339;49.754;20.158;2024-02-15T10:56:47;97180.67;;;10.44;70.94
34065;BME280;20339;49.754;20.158;2024-02-15T10:59:28;97181.31;;;10.43;70.89
34065;BME280;20339;49.754;20.158;2024-02-15T11:02:08;97178.66;;;10.44;70.65
34065;BME280;20339;49.754;20.158;2024-02-15T11:04:48;97175.69;;;10.46;70.38
34065;BME280;20339;49.754;20.158;2024-02-15T11:07:31;97173.15;;;10.46;70.44
34065;BME280;20339;49.754;20.158;2024-02-15T11:10:08;97169.92;;;10.60;70.63
34065;BME280;20339;49.754;20.158;2024-02-15T11:12:46;97168.45;;;10.76;70.60
34065;BME280;20339;49.754;20.158;2024-02-15T11:15:44;97162.45;;;10.89;70.42
34065;BME280;20339;49.754;20.158;2024-02-15T11:18:45;97157.25;;;11.00;70.41
34065;BME280;20339;49.754;20.158;2024-02-15T11:21:55;97152.83;;;11.06;70.05
34065;BME280;20339;49.754;20.158;2024-02-15T11:24:36;97152.62;;;11.15;70.14
34065;BME280;20339;49.754;20.158;2024-02-15T11:27:12;97150.57;;;11.28;69.81
34065;BME280;20339;49.754;20.158;2024-02-15T11:29:55;97144.54;;;11.39;69.88
34065;BME280;20339;49.754;20.158;2024-02-15T11:32:42;97144.52;;;11.59;69.67
34065;BME280;20339;49.754;20.158;2024-02-15T11:35:26;97139.63;;;11.63;69.06
34065;BME280;20339;49.754;20.158;2024-02-15T11:38:03;97134.56;;;11.70;68.98
34065;BME280;20339;49.754;20.158;2024-02-15T11:41:05;97132.83;;;11.82;68.84
34065;BME280;20339;49.754;20.158;2024-02-15T11:43:50;97135.11;;;12.04;68.95
34065;BME280;20339;49.754;20.158;2024-02-15T11:46:28;97127.86;;;11.98;67.47
34065;BME280;20339;49.754;20.158;2024-02-15T11:49:04;97126.80;;;11.88;67.81
34065;BME280;20339;49.754;20.158;2024-02-15T11:51:43;97122.83;;;12.00;67.80
34065;BME280;20339;49.754;20.158;2024-02-15T11:54:22;97118.52;;;12.05;67.20
34065;BME280;20339;49.754;20.158;2024-02-15T11:57:06;97116.39;;;11.97;66.74
34065;BME280;20339;49.754;20.158;2024-02-15T11:59:57;97112.02;;;12.03;66.88
34065;BME280;20339;49.754;20.158;2024-02-15T12:03:05;97111.86;;;12.18;66.40
34065;BME280;20339;49.754;20.158;2024-02-15T12:05:55;97110.60;;;12.07;64.53
34065;BME280;20339;49.754;20.158;2024-02-15T12:08:47;97109.70;;;12.06;65.40
34065;BME280;20339;49.754;20.158;2024-02-15T12:11:40;97110.34;;;12.24;65.82
34065;BME280;20339;49.754;20.158;2024-02-15T12:14:35;97109.60;;;12.35;65.59
34065;BME280;20339;49.754;20.158;2024-02-15T12:17:26;97107.11;;;12.43;65.56
34065;BME280;20339;49.754;20.158;2024-02-15T12:20:19;97107.42;;;12.50;65.28
34065;BME280;20339;49.754;20.158;2024-02-15T12:22:57;97105.61;;;12.37;64.37
34065;BME280;20339;49.754;20.158;2024-02-15T12:25:35;97099.42;;;12.40;64.90
34065;BME280;20339;49.754;20.158;2024-02-15T12:28:15;97099.59;;;12.45;64.64
34065;BME280;20339;49.754;20.158;2024-02-15T12:30:47;97100.48;;;12.43;64.08
34065;BME280;20339;49.754;20.158;2024-02-15T12:33:27;97102.27;;;12.37;63.31
34065;BME280;20339;49.754;20.158;2024-02-15T12:36:09;97100.67;;;12.22;63.03
34065;BME280;20339;49.754;20.158;2024-02-15T12:38:45;97098.64;;;12.24;63.44
34065;BME280;20339;49.754;20.158;2024-02-15T12:41:22;97096.34;;;12.28;63.50
34065;BME280;20339;49.754;20.158;2024-02-15T12:43:55;97102.30;;;12.33;63.38
34065;BME280;20339;49.754;20.158;2024-02-15T12:46:33;97098.27;;;12.40;63.60
34065;BME280;20339;49.754;20.158;2024-02-15T12:49:27;97097.40;;;12.47;63.45
34065;BME280;20339;49.754;20.158;2024-02-15T12:55:15;97093.38;;;12.54;63.43
34065;BME280;20339;49.754;20.158;2024-02-15T12:57:57;97093.79;;;12.52;63.26
34065;BME280;20339;49.754;20.158;2024-02-15T13:00:36;97088.20;;;12.47;62.87
34065;BME280;20339;49.754;20.158;2024-02-15T13:03:21;97082.92;;;12.44;63.08
34065;BME280;20339;49.754;20.158;2024-02-15T13:05:52;97083.64;;;12.58;63.63
34065;BME280;20339;49.754;20.158;2024-02-15T13:08:26;97084.68;;;12.80;63.81
34065;BME280;20339;49.754;20.158;2024-02-15T13:10:59;97083.69;;;12.88;63.14
34065;BME280;20339;49.754;20.158;2024-02-15T13:13:41;97082.95;;;12.71;62.21
34065;BME280;20339;49.754;20.158;2024-02-15T13:16:19;97078.22;;;12.58;62.44
34065;BME280;20339;49.754;20.158;2024-02-15T13:19:01;97077.31;;;12.69;62.92
34065;BME280;20339;49.754;20.158;2024-02-15T13:21:40;97073.58;;;12.88;63.08
34065;BME280;20339;49.754;20.158;2024-02-15T13:24:14;97072.09;;;12.99;62.68
34065;BME280;20339;49.754;20.158;2024-02-15T13:26:49;97069.27;;;12.94;62.46
34065;BME280;20339;49.754;20.158;2024-02-15T13:29:25;97075.08;;;12.88;62.33
34065;BME280;20339;49.754;20.158;2024-02-15T13:31:58;97069.80;;;12.84;62.44
34065;BME280;20339;49.754;20.158;2024-02-15T13:34:30;97069.11;;;12.93;62.39
34065;BME280;20339;49.754;20.158;2024-02-15T13:37:05;97069.49;;;12.92;62.21
34065;BME280;20339;49.754;20.158;2024-02-15T13:39:41;97066.27;;;13.04;62.41
34065;BME280;20339;49.754;20.158;2024-02-15T13:42:17;97062.66;;;13.16;62.55
34065;BME280;20339;49.754;20.158;2024-02-15T13:44:54;97067.48;;;13.19;62.18